Time;durP1;ratioP1;P1;durP2;ratioP2;P2;SDS_P1;SDS_P2;PMS_P1;PMS_P2;Temp;Humidity;BMP_temperature;BMP_pressure;BME280_temperature;BME280_humidity;BME280_pressure;Samples;Min_cycle;Max_cycle;Signal;HPM_P1;HPM_P2
2023/12/12 00:01:21;;;;;;;69.30;33.78;;;;;;;3.59;100.00;99664.41;5094131;28;20052;-42
2023/12/12 00:03:52;;;;;;;67.85;31.52;;;;;;;3.66;100.00;99658.78;5094046;28;20044;-42
2023/12/12 00:06:24;;;;;;;66.15;32.58;;;;;;;3.62;100.00;99661.63;5093592;28;20058;-42
2023/12/12 00:08:53;;;;;;;66.20;31.52;;;;;;;3.63;100.00;99676.53;5093695;28;20048;-41
2023/12/12 00:11:21;;;;;;;67.88;32.17;;;;;;;3.69;100.00;99671.03;5093668;28;20147;-41
2023/12/12 00:13:51;;;;;;;65.53;31.63;;;;;;;3.64;100.00;99670.34;5092343;28;20097;-41
2023/12/12 00:16:19;;;;;;;72.95;33.88;;;;;;;3.35;100.00;99663.59;5093345;28;20553;-42
2023/12/12 00:18:47;;;;;;;69.68;34.17;;;;;;;3.17;100.00;99668.69;5093080;28;20052;-43
2023/12/12 00:21:17;;;;;;;72.00;33.65;;;;;;;3.26;100.00;99672.72;5093402;28;20051;-42
2023/12/12 00:23:45;;;;;;;70.57;32.72;;;;;;;3.39;100.00;99687.16;5093385;28;20052;-42
2023/12/12 00:26:15;;;;;;;72.78;32.60;;;;;;;3.28;100.00;99678.81;5093049;28;20052;-41
2023/12/12 00:28:43;;;;;;;73.60;34.78;;;;;;;3.14;100.00;99681.97;5093182;28;20048;-40
2023/12/12 00:31:12;;;;;;;70.47;32.83;;;;;;;3.29;100.00;99696.34;5091774;28;20413;-41
2023/12/12 00:33:41;;;;;;;68.60;32.10;;;;;;;3.42;100.00;99686.19;5093195;28;20134;-41
2023/12/12 00:36:10;;;;;;;70.15;33.83;;;;;;;3.40;100.00;99693.28;5093203;28;20063;-42
2023/12/12 00:38:38;;;;;;;73.90;35.05;;;;;;;3.41;100.00;99685.31;5092787;28;20504;-42
2023/12/12 00:41:07;;;;;;;73.85;34.55;;;;;;;3.37;100.00;99691.63;5092939;28;20044;-41
2023/12/12 00:43:36;;;;;;;70.75;34.22;;;;;;;3.37;100.00;99688.13;5092633;28;20051;-42
2023/12/12 00:46:05;;;;;;;66.93;32.10;;;;;;;3.55;100.00;99686.53;5092860;28;20052;-41
2023/12/12 00:48:35;;;;;;;68.20;33.33;;;;;;;3.62;100.00;99682.72;5092716;28;20040;-40
2023/12/12 00:51:05;;;;;;;67.55;32.40;;;;;;;3.71;100.00;99683.22;5091050;28;20083;-40
2023/12/12 00:53:33;;;;;;;64.55;33.30;;;;;;;3.74;100.00;99688.34;5092753;28;20048;-42
2023/12/12 00:56:01;;;;;;;65.72;32.95;;;;;;;3.79;100.00;99685.53;5092457;28;20501;-40
2023/12/12 00:58:30;;;;;;;66.18;33.65;;;;;;;3.68;100.00;99687.75;5092155;28;20052;-41
2023/12/12 01:00:58;;;;;;;69.85;32.65;;;;;;;3.49;100.00;99684.16;5091124;28;20043;-43
2023/12/12 01:03:27;;;;;;;64.35;32.55;;;;;;;3.56;100.00;99689.09;5091150;28;20093;-43
2023/12/12 01:05:57;;;;;;;66.50;32.45;;;;;;;3.65;100.00;99687.88;5092571;28;20083;-41
2023/12/12 01:08:27;;;;;;;69.38;33.25;;;;;;;3.75;100.00;99689.22;5092340;28;20048;-42
2023/12/12 01:10:58;;;;;;;60.53;32.45;;;;;;;3.78;100.00;99673.28;5092283;28;20151;-40
2023/12/12 01:13:26;;;;;;;67.60;31.98;;;;;;;3.76;100.00;99674.25;5092423;28;20093;-41
2023/12/12 01:15:55;;;;;;;60.85;31.73;;;;;;;3.73;100.00;99673.44;5093603;28;20105;-42
2023/12/12 01:18:24;;;;;;;65.78;31.55;;;;;;;3.76;100.00;99675.09;5093105;28;20404;-43
2023/12/12 01:20:53;;;;;;;62.28;30.77;;;;;;;3.87;100.00;99680.81;5092383;28;20044;-42
2023/12/12 01:23:26;;;;;;;59.45;30.58;;;;;;;3.87;100.00;99675.53;5092063;28;20040;-42
2023/12/12 01:25:54;;;;;;;62.83;30.48;;;;;;;3.82;100.00;99661.66;5092151;28;20095;-40
2023/12/12 01:28:23;;;;;;;62.10;31.10;;;;;;;3.79;100.00;99661.81;5092417;28;20491;-42
2023/12/12 01:30:52;;;;;;;60.10;31.15;;;;;;;3.82;100.00;99668.72;5091956;28;20130;-41
2023/12/12 01:33:21;;;;;;;63.20;31.05;;;;;;;3.88;100.00;99671.97;5091790;28;20127;-42
2023/12/12 01:35:50;;;;;;;62.25;30.13;;;;;;;3.91;100.00;99677.09;5091713;28;20066;-42
2023/12/12 01:38:19;;;;;;;59.50;30.85;;;;;;;3.90;100.00;99688.59;5091516;28;20063;-42
2023/12/12 01:40:48;;;;;;;57.25;31.50;;;;;;;3.94;100.00;99689.31;5092060;28;20062;-42
2023/12/12 01:43:23;;;;;;;59.53;30.38;;;;;;;3.91;100.00;99690.31;5091795;28;20083;-41
2023/12/12 01:45:57;;;;;;;61.97;31.20;;;;;;;3.88;100.00;99685.16;5091638;28;20044;-41
2023/12/12 01:48:26;;;;;;;59.42;31.67;;;;;;;4.08;100.00;99686.97;5091526;28;20194;-42
2023/12/12 01:50:54;;;;;;;62.65;30.55;;;;;;;3.93;100.00;99690.22;5091622;28;20050;-41
2023/12/12 01:53:28;;;;;;;58.33;30.80;;;;;;;3.88;100.00;99679.03;5091803;28;20062;-41
2023/12/12 01:56:00;;;;;;;58.95;31.13;;;;;;;3.88;100.00;99684.31;5091647;28;20044;-45
2023/12/12 01:58:29;;;;;;;62.03;31.03;;;;;;;3.94;100.00;99689.31;5091552;28;20044;-40
2023/12/12 02:00:58;;;;;;;60.50;30.77;;;;;;;4.00;100.00;99676.72;5091357;28;20371;-42
2023/12/12 02:03:28;;;;;;;59.92;29.88;;;;;;;4.09;100.00;99666.69;5091672;28;20056;-41
2023/12/12 02:05:58;;;;;;;65.60;33.17;;;;;;;4.12;100.00;99667.41;5091593;28;20055;-43
2023/12/12 02:08:27;;;;;;;60.67;31.88;;;;;;;4.18;100.00;99676.88;5092757;28;20390;-41
2023/12/12 02:10:56;;;;;;;62.60;32.67;;;;;;;4.08;100.00;99678.19;5091603;28;20047;-42
2023/12/12 02:13:25;;;;;;;60.17;30.98;;;;;;;4.11;100.00;99680.69;5090097;28;20048;-41
2023/12/12 02:15:54;;;;;;;60.17;30.73;;;;;;;4.00;100.00;99686.41;5091321;28;20528;-41
2023/12/12 02:18:22;;;;;;;70.25;34.00;;;;;;;3.45;100.00;99689.53;5091568;28;20048;-41
2023/12/12 02:20:53;;;;;;;62.08;31.63;;;;;;;3.45;100.00;99689.53;5091274;28;20139;-41
2023/12/12 02:23:23;;;;;;;67.20;34.20;;;;;;;3.60;100.00;99689.84;5091400;28;20067;-41
2023/12/12 02:25:51;;;;;;;58.75;31.40;;;;;;;3.72;100.00;99689.34;5091404;28;20056;-41
2023/12/12 02:28:20;;;;;;;67.95;33.47;;;;;;;3.56;100.00;99677.69;5091138;28;20044;-41
2023/12/12 02:30:49;;;;;;;66.32;33.80;;;;;;;3.59;100.00;99685.50;5090320;28;20071;-41
2023/12/12 02:33:18;;;;;;;70.55;34.92;;;;;;;3.66;100.00;99684.31;5091781;28;20143;-41
2023/12/12 02:35:46;;;;;;;67.32;34.17;;;;;;;3.76;100.00;99685.66;5092579;28;20051;-41
2023/12/12 02:38:14;;;;;;;64.90;34.10;;;;;;;3.89;100.00;99681.59;5095598;28;20040;-41
2023/12/12 02:40:44;;;;;;;67.03;32.97;;;;;;;4.01;100.00;99686.34;5095262;28;20143;-41
2023/12/12 02:43:13;;;;;;;63.67;33.03;;;;;;;4.09;100.00;99685.19;5095154;28;20044;-42
2023/12/12 02:45:41;;;;;;;64.25;33.40;;;;;;;4.11;100.00;99691.25;5095305;28;20048;-40
2023/12/12 02:48:10;;;;;;;60.72;33.03;;;;;;;3.92;100.00;99691.16;5095557;28;20052;-41
2023/12/12 02:50:38;;;;;;;62.15;33.38;;;;;;;3.88;100.00;99689.59;5095380;28;20043;-44
2023/12/12 02:53:06;;;;;;;63.63;32.70;;;;;;;3.90;100.00;99688.59;5095265;28;20047;-41
2023/12/12 02:55:35;;;;;;;67.03;34.20;;;;;;;3.96;100.00;99693.63;5095499;28;20093;-41
2023/12/12 02:58:05;;;;;;;64.47;32.20;;;;;;;4.00;100.00;99681.16;5095444;28;20101;-41
2023/12/12 03:00:36;;;;;;;60.97;32.05;;;;;;;4.04;100.00;99690.63;5095013;28;20130;-41
2023/12/12 03:03:08;;;;;;;64.47;32.65;;;;;;;4.09;100.00;99698.38;5094868;28;20044;-41
2023/12/12 03:05:36;;;;;;;58.00;31.58;;;;;;;4.13;100.00;99694.66;5094832;28;20044;-41
2023/12/12 03:08:05;;;;;;;62.33;32.53;;;;;;;3.96;100.00;99687.47;5094967;28;20424;-41
2023/12/12 03:10:33;;;;;;;63.42;33.55;;;;;;;3.94;100.00;99697.22;5095318;28;20044;-41
2023/12/12 03:13:01;;;;;;;60.50;32.33;;;;;;;3.93;100.00;99698.16;5094874;28;20504;-41
2023/12/12 03:15:32;;;;;;;61.90;33.65;;;;;;;3.83;100.00;99700.31;5094879;28;20044;-42
2023/12/12 03:18:00;;;;;;;65.60;32.40;;;;;;;3.79;100.00;99697.88;5094718;28;20052;-42
2023/12/12 03:20:28;;;;;;;69.47;33.92;;;;;;;3.89;100.00;99707.97;5092999;28;20420;-42
2023/12/12 03:22:56;;;;;;;66.25;31.67;;;;;;;3.92;100.00;99707.84;5094422;28;20084;-42
2023/12/12 03:25:24;;;;;;;65.22;32.97;;;;;;;4.04;100.00;99703.81;5094246;28;20079;-44
2023/12/12 03:27:55;;;;;;;65.40;33.97;;;;;;;4.11;100.00;99707.06;5094280;28;20455;-41
2023/12/12 03:30:24;;;;;;;64.45;33.22;;;;;;;4.00;100.00;99718.94;5094298;28;20052;-41
2023/12/12 03:32:53;;;;;;;63.67;32.33;;;;;;;3.96;100.00;99722.66;5093970;28;20059;-43
2023/12/12 03:35:21;;;;;;;70.43;33.63;;;;;;;3.89;100.00;99717.69;5094060;28;20059;-42
2023/12/12 03:37:50;;;;;;;65.05;32.53;;;;;;;3.90;100.00;99719.41;5094228;28;20091;-43
2023/12/12 03:40:18;;;;;;;61.35;31.98;;;;;;;3.89;100.00;99715.91;5093994;28;20052;-42
2023/12/12 03:42:46;;;;;;;66.25;34.22;;;;;;;3.82;100.00;99711.78;5093908;28;20070;-41
2023/12/12 03:45:18;;;;;;;60.47;31.98;;;;;;;3.77;100.00;99707.63;5092786;28;20047;-41
2023/12/12 03:47:46;;;;;;;64.15;33.40;;;;;;;3.74;100.00;99717.38;5093466;28;20044;-46
2023/12/12 03:50:16;;;;;;;64.32;32.97;;;;;;;3.73;100.00;99713.00;5093605;28;20051;-40
2023/12/12 03:52:44;;;;;;;59.58;32.63;;;;;;;3.79;100.00;99719.84;5093875;28;20052;-40
2023/12/12 03:55:13;;;;;;;63.65;32.67;;;;;;;3.86;100.00;99717.78;5093770;28;20047;-41
2023/12/12 03:57:41;;;;;;;62.42;32.17;;;;;;;3.89;100.00;99718.53;5093598;28;20050;-40
2023/12/12 04:00:11;;;;;;;58.17;31.55;;;;;;;3.87;100.00;99730.94;5093574;28;20135;-41
2023/12/12 04:02:40;;;;;;;62.78;33.35;;;;;;;3.87;100.00;99728.31;5093596;28;20485;-41
2023/12/12 04:05:09;;;;;;;61.60;32.55;;;;;;;3.88;100.00;99727.38;5093779;28;20409;-40
2023/12/12 04:07:42;;;;;;;61.55;32.50;;;;;;;3.83;100.00;99721.41;5093405;28;20056;-42
2023/12/12 04:10:10;;;;;;;60.90;30.83;;;;;;;3.86;100.00;99721.31;5093568;28;20153;-41
2023/12/12 04:12:39;;;;;;;56.13;31.40;;;;;;;3.87;100.00;99733.56;5093390;28;20626;-42
2023/12/12 04:15:09;;;;;;;63.03;32.13;;;;;;;3.91;100.00;99736.94;5093434;28;20055;-41
2023/12/12 04:17:37;;;;;;;57.15;30.25;;;;;;;3.95;100.00;99733.25;5093356;28;20087;-41
2023/12/12 04:20:06;;;;;;;59.55;30.98;;;;;;;3.88;100.00;99737.94;5093309;28;20047;-42
2023/12/12 04:22:35;;;;;;;56.25;31.63;;;;;;;3.90;100.00;99733.44;5093160;28;20416;-41
2023/12/12 04:25:06;;;;;;;63.42;32.70;;;;;;;3.86;100.00;99737.13;5093008;28;20063;-41
2023/12/12 04:27:34;;;;;;;58.90;32.47;;;;;;;3.84;100.00;99738.97;5092825;28;20048;-40
2023/12/12 04:30:04;;;;;;;59.08;32.30;;;;;;;3.88;100.00;99730.00;5093247;28;20148;-40
2023/12/12 04:32:33;;;;;;;59.97;31.42;;;;;;;3.83;100.00;99726.69;5093043;28;20050;-40
2023/12/12 04:35:08;;;;;;;64.15;31.52;;;;;;;3.73;100.00;99728.00;5092967;28;20059;-40
2023/12/12 04:37:36;;;;;;;63.13;31.70;;;;;;;3.73;100.00;99733.25;5094052;28;20104;-42
2023/12/12 04:40:07;;;;;;;56.20;31.35;;;;;;;3.82;100.00;99730.25;5094828;28;20148;-40
2023/12/12 04:42:37;;;;;;;61.40;32.42;;;;;;;3.83;100.00;99739.88;5092846;28;20073;-42
2023/12/12 04:45:06;;;;;;;59.28;30.77;;;;;;;3.78;100.00;99738.38;5092877;28;20386;-41
2023/12/12 04:47:35;;;;;;;60.35;31.27;;;;;;;3.75;100.00;99741.97;5092607;28;20397;-41
2023/12/12 04:50:05;;;;;;;60.03;31.77;;;;;;;3.83;100.00;99739.88;5092727;28;20082;-41
2023/12/12 04:52:33;;;;;;;58.63;31.98;;;;;;;3.95;100.00;99735.88;5092436;28;20139;-41
2023/12/12 04:55:02;;;;;;;61.22;31.35;;;;;;;3.97;100.00;99723.50;5092741;28;20139;-41
2023/12/12 04:57:34;;;;;;;57.85;30.70;;;;;;;3.90;100.00;99728.16;5092638;28;20134;-43
2023/12/12 05:00:03;;;;;;;60.85;30.48;;;;;;;3.92;100.00;99718.41;5092040;28;20052;-42
2023/12/12 05:02:32;;;;;;;56.92;30.40;;;;;;;3.93;100.00;99728.03;5092859;28;20401;-41
2023/12/12 05:05:00;;;;;;;59.15;30.70;;;;;;;3.85;100.00;99711.66;5092333;28;20135;-41
2023/12/12 05:07:28;;;;;;;63.58;31.85;;;;;;;3.87;100.00;99727.44;5092334;28;20044;-42
2023/12/12 05:09:57;;;;;;;57.22;31.90;;;;;;;3.77;100.00;99721.69;5092660;28;20079;-40
2023/12/12 05:12:25;;;;;;;58.60;30.95;;;;;;;3.80;100.00;99724.19;5092396;28;20105;-42
2023/12/12 05:14:55;;;;;;;55.60;30.13;;;;;;;3.89;100.00;99734.38;5092390;28;20260;-41
2023/12/12 05:17:23;;;;;;;54.75;29.80;;;;;;;4.00;100.00;99752.41;5092126;28;20048;-41
2023/12/12 05:19:52;;;;;;;61.90;31.27;;;;;;;4.01;100.00;99759.38;5091881;28;20079;-41
2023/12/12 05:22:23;;;;;;;57.15;31.27;;;;;;;3.99;100.00;99750.69;5092067;28;20044;-41
2023/12/12 05:24:52;;;;;;;60.33;30.98;;;;;;;3.97;100.00;99756.03;5092063;28;20138;-40
2023/12/12 05:27:21;;;;;;;57.35;31.02;;;;;;;4.03;100.00;99757.53;5091547;28;20048;-41
2023/12/12 05:29:49;;;;;;;58.55;30.55;;;;;;;3.99;100.00;99758.59;5091900;28;20040;-43
2023/12/12 05:32:21;;;;;;;60.05;31.38;;;;;;;3.99;100.00;99763.88;5091779;28;20040;-41
2023/12/12 05:34:49;;;;;;;57.42;29.77;;;;;;;4.06;100.00;99761.84;5091945;28;20127;-41
2023/12/12 05:37:18;;;;;;;54.30;29.88;;;;;;;4.05;100.00;99768.03;5092039;28;20078;-41
2023/12/12 05:39:46;;;;;;;57.13;29.52;;;;;;;4.05;100.00;99765.38;5091925;28;20110;-41
2023/12/12 05:42:15;;;;;;;56.08;29.95;;;;;;;4.02;100.00;99767.25;5091932;28;20131;-41
2023/12/12 05:44:43;;;;;;;54.88;29.95;;;;;;;4.10;100.00;99769.56;5091700;28;20131;-40
2023/12/12 05:47:12;;;;;;;62.85;31.30;;;;;;;4.07;100.00;99768.84;5090695;28;20048;-41
2023/12/12 05:49:43;;;;;;;54.85;29.52;;;;;;;3.97;100.00;99774.50;5090577;28;20097;-41
2023/12/12 05:52:11;;;;;;;55.50;29.27;;;;;;;3.98;100.00;99776.22;5091581;28;20048;-41
2023/12/12 05:54:42;;;;;;;56.40;29.23;;;;;;;3.99;100.00;99772.66;5091991;28;20044;-42
2023/12/12 05:57:11;;;;;;;54.60;29.33;;;;;;;4.03;100.00;99776.00;5091284;28;20081;-41
2023/12/12 05:59:39;;;;;;;57.22;29.27;;;;;;;4.00;100.00;99795.47;5091394;28;20048;-41
2023/12/12 06:02:11;;;;;;;47.90;26.75;;;;;;;4.06;100.00;99785.59;5091578;28;20052;-42
2023/12/12 06:04:39;;;;;;;49.72;26.33;;;;;;;4.11;100.00;99780.97;5091670;28;20060;-40
2023/12/12 06:07:08;;;;;;;50.50;26.27;;;;;;;4.21;100.00;99793.72;5091332;28;20043;-43
2023/12/12 06:09:37;;;;;;;52.90;26.52;;;;;;;4.18;100.00;99796.50;5089254;28;20059;-41
2023/12/12 06:12:06;;;;;;;51.88;26.17;;;;;;;4.22;100.00;99806.00;5087813;28;20040;-40
2023/12/12 06:14:35;;;;;;;50.10;26.25;;;;;;;4.21;100.00;99803.44;5090448;28;20158;-39
2023/12/12 06:17:03;;;;;;;49.92;27.23;;;;;;;4.31;100.00;99810.06;5091148;28;20050;-40
2023/12/12 06:19:32;;;;;;;50.65;25.70;;;;;;;4.38;100.00;99811.53;5090071;28;20097;-40
2023/12/12 06:22:01;;;;;;;47.03;24.80;;;;;;;4.42;100.00;99813.09;5087413;28;20048;-41
2023/12/12 06:24:33;;;;;;;47.17;26.40;;;;;;;4.39;100.00;99817.66;5088661;28;20048;-41
2023/12/12 06:27:01;;;;;;;47.67;25.70;;;;;;;4.42;100.00;99821.03;5089503;28;20237;-40
2023/12/12 06:29:32;;;;;;;45.55;25.48;;;;;;;4.37;100.00;99815.09;5089004;28;20157;-40
2023/12/12 06:32:00;;;;;;;48.55;26.27;;;;;;;4.20;100.00;99817.56;5087910;28;20054;-41
2023/12/12 06:34:29;;;;;;;52.50;28.98;;;;;;;3.94;100.00;99822.09;5090263;28;20044;-40
2023/12/12 06:36:57;;;;;;;55.33;30.83;;;;;;;3.80;100.00;99824.44;5090090;28;20063;-41
2023/12/12 06:39:26;;;;;;;55.30;31.58;;;;;;;3.74;100.00;99830.81;5090594;28;20066;-40
2023/12/12 06:41:56;;;;;;;60.95;32.28;;;;;;;3.57;100.00;99848.19;5089030;28;20052;-40
2023/12/12 06:44:24;;;;;;;61.30;32.42;;;;;;;3.60;100.00;99848.94;5090679;28;20050;-40
2023/12/12 06:46:53;;;;;;;63.75;33.50;;;;;;;3.56;100.00;99842.06;5090726;28;20051;-40
2023/12/12 06:49:21;;;;;;;60.10;34.20;;;;;;;3.77;100.00;99840.41;5090130;28;20055;-40
2023/12/12 06:51:49;;;;;;;64.72;36.15;;;;;;;3.88;100.00;99843.47;5088601;28;20044;-40
2023/12/12 06:54:18;;;;;;;62.17;33.83;;;;;;;3.87;100.00;99844.41;5090532;28;20048;-41
2023/12/12 06:56:47;;;;;;;57.55;32.03;;;;;;;3.89;100.00;99850.47;5090563;28;20087;-40
2023/12/12 06:59:17;;;;;;;59.83;32.55;;;;;;;3.95;100.00;99844.94;5090540;28;20056;-41
2023/12/12 07:01:46;;;;;;;66.60;34.70;;;;;;;4.07;100.00;99848.03;5088682;28;20102;-40
2023/12/12 07:04:14;;;;;;;63.63;32.35;;;;;;;3.99;100.00;99851.81;5089962;28;20044;-40
2023/12/12 07:06:43;;;;;;;62.30;31.70;;;;;;;4.12;100.00;99846.91;5090530;28;20129;-40
2023/12/12 07:09:12;;;;;;;61.42;31.50;;;;;;;3.90;100.00;99841.63;5090247;28;20139;-40
2023/12/12 07:11:41;;;;;;;57.22;32.25;;;;;;;4.17;100.00;99844.09;5087889;28;20135;-40
2023/12/12 07:14:24;;;;;;;58.88;32.08;;;;;;;4.13;100.00;99845.13;5046522;28;20072;-40
2023/12/12 07:17:11;;;;;;;63.53;33.80;;;;;;;4.20;100.00;99849.25;5070185;28;20044;-41
2023/12/12 07:19:39;;;;;;;62.13;34.25;;;;;;;4.23;100.00;99859.66;5089736;28;20143;-41
2023/12/12 07:22:09;;;;;;;115.40;36.47;;;;;;;4.23;100.00;99859.66;5090544;28;20052;-40
2023/12/12 07:24:40;;;;;;;71.38;34.75;;;;;;;4.24;100.00;99862.25;5093428;28;20503;-41
2023/12/12 07:27:09;;;;;;;67.88;36.00;;;;;;;4.32;100.00;99865.44;5093530;28;20056;-39
2023/12/12 07:29:39;;;;;;;62.70;34.63;;;;;;;4.41;100.00;99858.91;5093184;28;20330;-43
2023/12/12 07:32:08;;;;;;;62.67;35.28;;;;;;;4.37;100.00;99851.19;5092225;28;20040;-39
2023/12/12 07:34:36;;;;;;;65.45;33.90;;;;;;;4.48;100.00;99855.09;5093914;28;20044;-40
2023/12/12 07:37:05;;;;;;;61.88;34.28;;;;;;;4.51;100.00;99860.25;5093506;28;20532;-39
2023/12/12 07:39:34;;;;;;;62.85;34.70;;;;;;;4.59;100.00;99868.72;5091710;28;20508;-42
2023/12/12 07:42:03;;;;;;;66.78;34.63;;;;;;;4.74;100.00;99874.31;5091772;28;20052;-41
2023/12/12 07:44:34;;;;;;;62.38;35.65;;;;;;;4.84;100.00;99865.91;5093548;28;20132;-40
2023/12/12 07:47:04;;;;;;;64.32;34.80;;;;;;;4.84;100.00;99862.41;5093532;28;20414;-43
2023/12/12 07:49:33;;;;;;;61.75;34.92;;;;;;;4.95;100.00;99867.25;5092992;28;20071;-40
2023/12/12 07:52:02;;;;;;;65.68;35.33;;;;;;;5.06;100.00;99873.78;5091810;28;20176;-40
2023/12/12 07:54:30;;;;;;;63.30;34.35;;;;;;;5.00;100.00;99881.97;5093116;28;20421;-39
2023/12/12 07:56:59;;;;;;;60.83;34.40;;;;;;;5.05;100.00;99890.56;5093197;28;20048;-40
2023/12/12 07:59:27;;;;;;;62.85;34.30;;;;;;;5.15;100.00;99883.09;5093347;28;20047;-39
2023/12/12 08:01:55;;;;;;;59.85;33.45;;;;;;;5.20;100.00;99891.66;5091301;28;20059;-40
2023/12/12 08:04:25;;;;;;;59.92;33.38;;;;;;;5.28;100.00;99894.84;5093183;28;20048;-40
2023/12/12 08:06:53;;;;;;;63.35;34.28;;;;;;;5.07;100.00;99896.63;5093312;28;20055;-39
2023/12/12 08:09:28;;;;;;;58.92;34.15;;;;;;;5.15;100.00;99898.94;5093151;28;20047;-39
2023/12/12 08:11:57;;;;;;;61.42;33.95;;;;;;;5.30;100.00;99902.69;5091111;28;20052;-40
2023/12/12 08:14:26;;;;;;;66.38;34.22;;;;;;;5.38;100.00;99896.16;5092887;28;20050;-40
2023/12/12 08:16:54;;;;;;;64.03;34.33;;;;;;;5.39;100.00;99886.41;5092737;28;20052;-40
2023/12/12 08:19:22;;;;;;;66.88;34.97;;;;;;;5.40;100.00;99888.13;5093074;28;20135;-41
2023/12/12 08:21:52;;;;;;;63.13;34.60;;;;;;;5.35;100.00;99890.16;5090468;28;20058;-39
2023/12/12 08:24:21;;;;;;;68.78;35.30;;;;;;;5.49;100.00;99887.72;5092541;28;20196;-39
2023/12/12 08:26:49;;;;;;;66.75;35.60;;;;;;;5.47;100.00;99881.66;5092380;28;20063;-41
2023/12/12 08:29:17;;;;;;;70.45;35.08;;;;;;;5.43;100.00;99877.44;5092806;28;20051;-40
2023/12/12 08:31:46;;;;;;;67.38;33.88;;;;;;;5.46;100.00;99872.00;5090334;28;20185;-39
2023/12/12 08:34:14;;;;;;;65.10;33.72;;;;;;;5.40;100.00;99862.56;5091475;28;20040;-39
2023/12/12 08:36:42;;;;;;;69.53;37.10;;;;;;;5.36;100.00;99862.75;5092619;28;20046;-39
2023/12/12 08:39:13;;;;;;;61.13;34.47;;;;;;;5.54;100.00;99869.88;5092457;28;20060;-40
2023/12/12 08:41:41;;;;;;;62.13;34.33;;;;;;;5.59;100.00;99873.16;5089916;28;20138;-39
2023/12/12 08:44:09;;;;;;;68.38;36.65;;;;;;;5.81;100.00;99880.13;5090850;28;20048;-41
2023/12/12 08:46:38;;;;;;;79.30;36.92;;;;;;;5.92;100.00;99883.16;5092023;28;20590;-40
2023/12/12 08:49:06;;;;;;;66.60;34.55;;;;;;;6.11;100.00;99875.19;5092105;28;20056;-39
2023/12/12 08:51:35;;;;;;;64.95;35.08;;;;;;;6.17;100.00;99880.19;5090308;28;20067;-39
2023/12/12 08:54:03;;;;;;;63.92;34.80;;;;;;;6.18;100.00;99880.13;5092007;28;20048;-41
2023/12/12 08:56:33;;;;;;;64.35;34.70;;;;;;;6.17;100.00;99888.13;5092039;28;20178;-40
2023/12/12 08:59:01;;;;;;;66.32;37.38;;;;;;;6.20;100.00;99895.94;5090713;28;20044;-40
2023/12/12 09:01:30;;;;;;;65.55;36.33;;;;;;;6.08;100.00;99894.75;5089580;28;20044;-41
2023/12/12 09:03:59;;;;;;;68.57;39.53;;;;;;;5.91;100.00;99902.63;5092000;28;20127;-39
2023/12/12 09:06:27;;;;;;;67.90;37.95;;;;;;;5.94;100.00;99905.13;5092087;28;20048;-39
2023/12/12 09:08:55;;;;;;;65.57;37.58;;;;;;;5.91;100.00;99903.47;5092005;28;20396;-40
2023/12/12 09:11:23;;;;;;;64.90;35.17;;;;;;;6.02;100.00;99900.31;5089455;28;20051;-40
2023/12/12 09:13:53;;;;;;;67.82;34.72;;;;;;;6.22;100.00;99900.22;5091706;28;20059;-41
2023/12/12 09:16:21;;;;;;;57.67;33.42;;;;;;;6.32;100.00;99895.34;5091729;28;20055;-40
2023/12/12 09:18:50;;;;;;;57.20;31.55;;;;;;;6.40;100.00;99898.50;5091772;28;20044;-45
2023/12/12 09:21:19;;;;;;;51.95;30.20;;;;;;;6.55;100.00;99888.91;5089465;28;20481;-42
2023/12/12 09:23:47;;;;;;;53.47;30.08;;;;;;;6.62;100.00;99900.94;5091576;28;20492;-40
2023/12/12 09:26:18;;;;;;;51.85;28.42;;;;;;;6.68;100.00;99884.75;5091065;28;20449;-40
2023/12/12 09:28:47;;;;;;;49.72;26.90;;;;;;;6.84;100.00;99882.16;5091488;28;20394;-41
2023/12/12 09:31:26;;;;;;;51.63;27.20;;;;;;;6.96;100.00;99881.56;5089468;28;20094;-40
2023/12/12 09:33:54;;;;;;;45.10;25.27;;;;;;;7.07;100.00;99873.91;5091788;28;20097;-40
2023/12/12 09:36:25;;;;;;;44.45;24.02;;;;;;;7.19;100.00;99872.41;5092481;28;20048;-41
2023/12/12 09:38:53;;;;;;;40.05;23.38;;;;;;;7.36;100.00;99875.03;5092821;28;20067;-41
2023/12/12 09:41:22;;;;;;;43.72;24.25;;;;;;;7.57;100.00;99877.47;5089858;28;20146;-42
2023/12/12 09:43:51;;;;;;;43.35;24.20;;;;;;;7.71;100.00;99877.56;5091954;28;20093;-41
2023/12/12 09:46:23;;;;;;;43.80;22.95;;;;;;;7.85;100.00;99872.38;5091843;28;20044;-41
2023/12/12 09:48:53;;;;;;;38.35;22.08;;;;;;;8.07;100.00;99876.50;5091763;28;20048;-40
2023/12/12 09:51:22;;;;;;;35.42;21.52;;;;;;;8.20;100.00;99874.88;5089632;28;20062;-49
2023/12/12 09:53:50;;;;;;;38.78;22.33;;;;;;;8.42;100.00;99872.75;5091998;28;20138;-40
2023/12/12 09:56:19;;;;;;;36.53;20.80;;;;;;;8.47;100.00;99864.50;5091841;28;20054;-41
2023/12/12 09:58:49;;;;;;;36.25;20.83;;;;;;;8.57;100.00;99861.22;5092765;28;20048;-42
2023/12/12 10:01:18;;;;;;;31.00;19.98;;;;;;;8.71;100.00;99862.25;5090772;28;20048;-42
2023/12/12 10:03:55;;;;;;;37.25;19.75;;;;;;;8.78;100.00;99868.88;5093083;28;20048;-40
2023/12/12 10:06:26;;;;;;;33.75;19.83;;;;;;;8.85;100.00;99865.78;5091082;28;20048;-41
2023/12/12 10:08:58;;;;;;;25.73;13.55;;;;;;;8.90;100.00;99860.22;5091710;28;20520;-42
2023/12/12 10:11:26;;;;;;;25.83;13.18;;;;;;;9.12;100.00;99863.28;5088768;28;20093;-41
2023/12/12 10:13:56;;;;;;;22.95;12.40;;;;;;;9.14;100.00;99856.06;5091106;28;20397;-41
2023/12/12 10:16:25;;;;;;;26.52;12.73;;;;;;;9.27;100.00;99861.50;5091155;28;20114;-41
2023/12/12 10:18:56;;;;;;;22.30;12.57;;;;;;;9.32;100.00;99855.91;5090860;28;20048;-40
2023/12/12 10:21:26;;;;;;;23.17;12.10;;;;;;;9.40;100.00;99850.97;5088747;28;20063;-42
2023/12/12 10:23:55;;;;;;;28.38;14.57;;;;;;;9.56;100.00;99856.22;5090541;28;20558;-41
2023/12/12 10:26:26;;;;;;;33.83;19.20;;;;;;;9.54;100.00;99856.28;5089274;28;20489;-40
2023/12/12 10:28:59;;;;;;;34.45;18.90;;;;;;;9.58;100.00;99849.81;5090672;28;20120;-41
2023/12/12 10:31:28;;;;;;;34.23;19.20;;;;;;;9.49;100.00;99845.06;5088511;28;20044;-41
2023/12/12 10:33:58;;;;;;;38.30;21.48;;;;;;;9.46;100.00;99845.28;5091031;28;20534;-40
2023/12/12 10:36:27;;;;;;;39.40;23.13;;;;;;;9.13;100.00;99842.84;5090600;28;20451;-43
2023/12/12 10:39:10;;;;;;;36.75;22.35;;;;;;;8.64;100.00;99847.59;5090463;28;20075;-41
2023/12/12 10:41:39;;;;;;;32.13;20.10;;;;;;;8.44;100.00;99840.78;5088389;28;20052;-40
2023/12/12 10:44:09;;;;;;;28.92;18.45;;;;;;;8.68;100.00;99841.13;5089263;28;20079;-40
2023/12/12 10:46:40;;;;;;;29.77;18.42;;;;;;;8.75;100.00;99829.19;5090402;28;20048;-40
2023/12/12 10:49:12;;;;;;;31.63;18.88;;;;;;;8.71;100.00;99836.50;5090690;28;20161;-40
2023/12/12 10:51:45;;;;;;;33.28;18.77;;;;;;;8.78;100.00;99847.59;5088699;28;20447;-40
2023/12/12 10:54:17;;;;;;;31.20;18.55;;;;;;;8.72;100.00;99846.19;5090110;28;20059;-39
2023/12/12 10:56:46;;;;;;;32.40;18.83;;;;;;;8.92;100.00;99850.31;5091138;28;20447;-41
2023/12/12 10:59:19;;;;;;;29.02;17.90;;;;;;;9.03;100.00;99857.66;5094059;28;20063;-39
2023/12/12 11:02:10;;;;;;;31.58;16.95;;;;;;;9.14;100.00;99857.88;5092900;28;20437;-41
2023/12/12 11:04:41;;;;;;;34.05;16.95;;;;;;;9.29;100.00;99864.94;5093877;28;20083;-40
2023/12/12 11:07:09;;;;;;;33.03;17.60;;;;;;;9.37;100.00;99867.13;5094283;28;20044;-40
2023/12/12 11:09:38;;;;;;;28.40;16.67;;;;;;;9.39;100.00;99857.25;5094087;28;20067;-41
2023/12/12 11:12:08;;;;;;;25.33;15.48;;;;;;;9.37;100.00;99867.13;5090488;28;20055;-40
2023/12/12 11:14:45;;;;;;;28.52;16.00;;;;;;;9.39;100.00;99858.09;5092259;28;20126;-40
2023/12/12 11:17:15;;;;;;;28.70;16.10;;;;;;;9.44;100.00;99860.47;5093307;28;20055;-40
2023/12/12 11:19:44;;;;;;;23.20;13.68;;;;;;;9.53;100.00;99856.38;5093814;28;20055;-42
2023/12/12 11:22:38;;;;;;;29.02;13.93;;;;;;;9.73;100.00;99864.81;5091751;28;20044;-40
2023/12/12 11:25:08;;;;;;;20.50;13.00;;;;;;;9.69;100.00;99855.34;5094141;28;20136;-40
2023/12/12 11:27:40;;;;;;;26.55;13.50;;;;;;;9.71;100.00;99858.75;5094233;28;20390;-40